sensor_id;sensor_type;location;lat;lon;timestamp;pressure;altitude;pressure_sealevel;temperature;humidity
71772;BME280;59606;52.138;5.424;2023-09-19T00:00:44;100787.97;;;14.91;100.00
71772;BME280;59606;52.138;5.424;2023-09-19T00:03:14;100784.75;;;14.87;100.00
71772;BME280;59606;52.138;5.424;2023-09-19T00:05:41;100796.41;;;14.83;100.00
71772;BME280;59606;52.138;5.424;2023-09-19T00:08:12;100790.56;;;14.79;100.00
71772;BME280;59606;52.138;5.424;2023-09-19T00:10:40;100800.09;;;14.80;100.00
71772;BME280;59606;52.138;5.424;2023-09-19T00:13:09;100802.09;;;14.77;100.00
71772;BME280;59606;52.138;5.424;2023-09-19T00:15:46;100805.91;;;14.73;100.00
71772;BME280;59606;52.138;5.424;2023-09-19T00:18:15;100809.25;;;14.75;100.00
71772;BME280;59606;52.138;5.424;2023-09-19T00:20:43;100818.91;;;14.74;100.00
71772;BME280;59606;52.138;5.424;2023-09-19T00:23:13;100810.81;;;14.77;100.00
71772;BME280;59606;52.138;5.424;2023-09-19T00:25:40;100809.25;;;14.75;100.00
71772;BME280;59606;52.138;5.424;2023-09-19T00:28:08;100804.94;;;14.74;100.00
71772;BME280;59606;52.138;5.424;2023-09-19T00:30:35;100816.50;;;14.71;100.00
71772;BME280;59606;52.138;5.424;2023-09-19T00:33:02;100812.09;;;14.72;100.00
71772;BME280;59606;52.138;5.424;2023-09-19T00:35:32;100819.03;;;14.73;100.00
71772;BME280;59606;52.138;5.424;2023-09-19T00:37:59;100817.22;;;14.73;100.00
71772;BME280;59606;52.138;5.424;2023-09-19T00:40:26;100824.34;;;14.71;100.00
71772;BME280;59606;52.138;5.424;2023-09-19T00:42:57;100818.50;;;14.68;100.00
71772;BME280;59606;52.138;5.424;2023-09-19T00:45:26;100822.91;;;14.67;100.00
71772;BME280;59606;52.138;5.424;2023-09-19T00:47:53;100813.38;;;14.66;100.00
71772;BME280;59606;52.138;5.424;2023-09-19T00:50:23;100821.03;;;14.69;100.00
71772;BME280;59606;52.138;5.424;2023-09-19T00:52:54;100826.88;;;14.73;100.00
71772;BME280;59606;52.138;5.424;2023-09-19T00:55:24;100828.69;;;14.72;100.00
71772;BME280;59606;52.138;5.424;2023-09-19T00:57:52;100825.31;;;14.70;100.00
71772;BME280;59606;52.138;5.424;2023-09-19T01:00:19;100832.34;;;14.70;100.00
71772;BME280;59606;52.138;5.424;2023-09-19T01:02:47;100838.31;;;14.72;100.00
71772;BME280;59606;52.138;5.424;2023-09-19T01:05:15;100837.69;;;14.68;100.00
71772;BME280;59606;52.138;5.424;2023-09-19T01:07:45;100842.72;;;14.71;100.00
71772;BME280;59606;52.138;5.424;2023-09-19T01:10:12;100839.25;;;14.71;100.00
71772;BME280;59606;52.138;5.424;2023-09-19T01:21:22;100838.03;;;14.64;100.00
71772;BME280;59606;52.138;5.424;2023-09-19T01:24:10;100839.00;;;14.63;100.00
71772;BME280;59606;52.138;5.424;2023-09-19T01:29:45;100837.50;;;14.58;100.00
71772;BME280;59606;52.138;5.424;2023-09-19T01:32:18;100839.41;;;14.56;100.00
71772;BME280;59606;52.138;5.424;2023-09-19T01:34:53;100839.50;;;14.55;100.00
71772;BME280;59606;52.138;5.424;2023-09-19T01:37:21;100837.13;;;14.52;100.00
71772;BME280;59606;52.138;5.424;2023-09-19T01:39:55;100842.25;;;14.53;100.00
71772;BME280;59606;52.138;5.424;2023-09-19T01:43:09;100838.59;;;14.56;100.00
71772;BME280;59606;52.138;5.424;2023-09-19T01:45:18;100837.75;;;14.55;100.00
71772;BME280;59606;52.138;5.424;2023-09-19T01:47:51;100845.72;;;14.54;100.00
71772;BME280;59606;52.138;5.424;2023-09-19T01:50:42;100850.00;;;14.55;100.00
71772;BME280;59606;52.138;5.424;2023-09-19T01:53:15;100845.94;;;14.51;100.00
71772;BME280;59606;52.138;5.424;2023-09-19T01:55:48;100855.38;;;14.53;100.00
71772;BME280;59606;52.138;5.424;2023-09-19T01:58:20;100853.59;;;14.54;100.00
71772;BME280;59606;52.138;5.424;2023-09-19T02:00:49;100855.59;;;14.50;100.00
71772;BME280;59606;52.138;5.424;2023-09-19T02:03:20;100845.09;;;14.50;100.00
71772;BME280;59606;52.138;5.424;2023-09-19T02:05:50;100859.22;;;14.48;100.00
71772;BME280;59606;52.138;5.424;2023-09-19T02:08:19;100856.59;;;14.48;100.00
71772;BME280;59606;52.138;5.424;2023-09-19T02:10:46;100852.53;;;14.44;100.00
71772;BME280;59606;52.138;5.424;2023-09-19T02:13:20;100855.16;;;14.44;100.00
71772;BME280;59606;52.138;5.424;2023-09-19T02:15:47;100841.31;;;14.42;100.00
71772;BME280;59606;52.138;5.424;2023-09-19T02:18:13;100843.09;;;14.41;100.00
71772;BME280;59606;52.138;5.424;2023-09-19T02:20:41;100842.38;;;14.39;100.00
71772;BME280;59606;52.138;5.424;2023-09-19T02:23:08;100843.31;;;14.38;100.00
71772;BME280;59606;52.138;5.424;2023-09-19T02:25:35;100849.41;;;14.38;100.00
71772;BME280;59606;52.138;5.424;2023-09-19T02:28:02;100849.50;;;14.37;100.00
71772;BME280;59606;52.138;5.424;2023-09-19T02:30:30;100855.69;;;14.36;100.00
71772;BME280;59606;52.138;5.424;2023-09-19T02:32:57;100854.88;;;14.35;100.00
71772;BME280;59606;52.138;5.424;2023-09-19T02:35:23;100860.19;;;14.34;100.00
71772;BME280;59606;52.138;5.424;2023-09-19T02:37:52;100866.41;;;14.33;100.00
71772;BME280;59606;52.138;5.424;2023-09-19T02:40:18;100859.56;;;14.30;100.00
71772;BME280;59606;52.138;5.424;2023-09-19T02:42:46;100859.78;;;14.27;100.00
71772;BME280;59606;52.138;5.424;2023-09-19T02:45:16;100856.53;;;14.24;100.00
71772;BME280;59606;52.138;5.424;2023-09-19T02:47:46;100861.28;;;14.19;100.00
71772;BME280;59606;52.138;5.424;2023-09-19T02:50:14;100869.25;;;14.17;100.00
71772;BME280;59606;52.138;5.424;2023-09-19T02:52:45;100861.50;;;14.15;100.00
71772;BME280;59606;52.138;5.424;2023-09-19T02:55:16;100867.66;;;14.14;100.00
71772;BME280;59606;52.138;5.424;2023-09-19T02:57:51;100862.75;;;14.10;100.00
71772;BME280;59606;52.138;5.424;2023-09-19T03:00:19;100862.00;;;14.08;100.00
71772;BME280;59606;52.138;5.424;2023-09-19T03:02:52;100876.19;;;14.05;100.00
71772;BME280;59606;52.138;5.424;2023-09-19T03:05:20;100862.53;;;14.00;100.00
71772;BME280;59606;52.138;5.424;2023-09-19T03:07:47;100867.91;;;13.99;100.00
71772;BME280;59606;52.138;5.424;2023-09-19T03:10:18;100863.06;;;13.93;100.00
71772;BME280;59606;52.138;5.424;2023-09-19T03:12:46;100859.91;;;13.87;100.00
71772;BME280;59606;52.138;5.424;2023-09-19T03:15:14;100863.63;;;13.85;100.00
71772;BME280;59606;52.138;5.424;2023-09-19T03:17:45;100856.78;;;13.82;100.00
71772;BME280;59606;52.138;5.424;2023-09-19T03:20:15;100862.44;;;13.76;100.00
71772;BME280;59606;52.138;5.424;2023-09-19T03:22:44;100864.53;;;13.71;100.00
71772;BME280;59606;52.138;5.424;2023-09-19T03:25:11;100864.84;;;13.66;100.00
71772;BME280;59606;52.138;5.424;2023-09-19T03:27:38;100862.53;;;13.62;100.00
71772;BME280;59606;52.138;5.424;2023-09-19T03:30:06;100872.06;;;13.63;100.00
71772;BME280;59606;52.138;5.424;2023-09-19T03:32:46;100870.59;;;13.59;100.00
71772;BME280;59606;52.138;5.424;2023-09-19T03:35:13;100866.41;;;13.56;100.00
71772;BME280;59606;52.138;5.424;2023-09-19T03:37:41;100869.13;;;13.55;100.00
71772;BME280;59606;52.138;5.424;2023-09-19T03:40:09;100872.78;;;13.52;100.00
71772;BME280;59606;52.138;5.424;2023-09-19T03:42:41;100865.97;;;13.50;100.00
71772;BME280;59606;52.138;5.424;2023-09-19T03:45:08;100860.19;;;13.44;100.00
71772;BME280;59606;52.138;5.424;2023-09-19T03:47:39;100856.94;;;13.41;100.00
71772;BME280;59606;52.138;5.424;2023-09-19T03:50:06;100859.88;;;13.36;100.00
71772;BME280;59606;52.138;5.424;2023-09-19T03:52:38;100854.84;;;13.33;100.00
71772;BME280;59606;52.138;5.424;2023-09-19T03:55:04;100862.88;;;13.30;100.00
71772;BME280;59606;52.138;5.424;2023-09-19T03:57:32;100870.94;;;13.27;100.00
71772;BME280;59606;52.138;5.424;2023-09-19T03:59:58;100872.88;;;13.24;100.00
71772;BME280;59606;52.138;5.424;2023-09-19T04:02:25;100875.69;;;13.20;100.00
71772;BME280;59606;52.138;5.424;2023-09-19T04:04:51;100882.06;;;13.16;100.00
71772;BME280;59606;52.138;5.424;2023-09-19T04:07:19;100884.69;;;13.16;100.00
71772;BME280;59606;52.138;5.424;2023-09-19T04:09:46;100884.16;;;13.11;100.00
71772;BME280;59606;52.138;5.424;2023-09-19T04:12:12;100893.88;;;13.09;100.00
71772;BME280;59606;52.138;5.424;2023-09-19T04:14:39;100895.84;;;13.06;100.00
71772;BME280;59606;52.138;5.424;2023-09-19T04:17:05;100895.84;;;13.06;100.00
71772;BME280;59606;52.138;5.424;2023-09-19T04:19:36;100892.41;;;13.05;100.00
71772;BME280;59606;52.138;5.424;2023-09-19T04:22:03;100903.91;;;13.03;100.00
71772;BME280;59606;52.138;5.424;2023-09-19T04:24:30;100906.69;;;13.00;100.00
71772;BME280;59606;52.138;5.424;2023-09-19T04:26:58;100908.38;;;13.01;100.00
71772;BME280;59606;52.138;5.424;2023-09-19T04:29:25;100914.47;;;13.01;100.00
71772;BME280;59606;52.138;5.424;2023-09-19T04:31:56;100921.38;;;13.02;100.00
71772;BME280;59606;52.138;5.424;2023-09-19T04:34:23;100919.91;;;12.98;100.00
71772;BME280;59606;52.138;5.424;2023-09-19T04:36:51;100918.13;;;12.98;100.00
71772;BME280;59606;52.138;5.424;2023-09-19T04:39:17;100932.22;;;12.96;100.00
71772;BME280;59606;52.138;5.424;2023-09-19T04:41:44;100941.00;;;12.95;100.00
71772;BME280;59606;52.138;5.424;2023-09-19T04:44:12;100943.69;;;12.93;100.00
71772;BME280;59606;52.138;5.424;2023-09-19T04:46:40;100950.91;;;12.90;100.00
71772;BME280;59606;52.138;5.424;2023-09-19T04:49:06;100946.63;;;12.89;100.00
71772;BME280;59606;52.138;5.424;2023-09-19T04:51:33;100938.78;;;12.89;100.00
71772;BME280;59606;52.138;5.424;2023-09-19T04:54:02;100935.41;;;12.87;100.00
71772;BME280;59606;52.138;5.424;2023-09-19T04:56:29;100932.97;;;12.84;100.00
71772;BME280;59606;52.138;5.424;2023-09-19T04:58:56;100934.69;;;12.85;100.00
71772;BME280;59606;52.138;5.424;2023-09-19T05:01:25;100929.63;;;12.82;100.00
71772;BME280;59606;52.138;5.424;2023-09-19T05:03:52;100929.63;;;12.82;100.00
71772;BME280;59606;52.138;5.424;2023-09-19T05:06:19;100929.72;;;12.80;100.00
71772;BME280;59606;52.138;5.424;2023-09-19T05:08:49;100933.16;;;12.81;100.00
71772;BME280;59606;52.138;5.424;2023-09-19T05:11:18;100937.56;;;12.80;100.00
71772;BME280;59606;52.138;5.424;2023-09-19T05:13:49;100936.72;;;12.80;100.00
71772;BME280;59606;52.138;5.424;2023-09-19T05:16:17;100942.91;;;12.79;100.00
71772;BME280;59606;52.138;5.424;2023-09-19T05:18:43;100943.84;;;12.78;100.00
71772;BME280;59606;52.138;5.424;2023-09-19T05:21:10;100935.13;;;12.77;100.00
71772;BME280;59606;52.138;5.424;2023-09-19T05:23:36;100946.34;;;12.79;100.00
71772;BME280;59606;52.138;5.424;2023-09-19T05:26:04;100937.56;;;12.80;100.00
71772;BME280;59606;52.138;5.424;2023-09-19T05:28:31;100945.41;;;12.80;100.00
71772;BME280;59606;52.138;5.424;2023-09-19T05:31:01;100949.78;;;12.80;100.00
71772;BME280;59606;52.138;5.424;2023-09-19T05:33:28;100938.63;;;12.78;100.00
71772;BME280;59606;52.138;5.424;2023-09-19T05:35:57;100938.50;;;12.79;100.00
71772;BME280;59606;52.138;5.424;2023-09-19T05:38:23;100934.09;;;12.80;100.00
71772;BME280;59606;52.138;5.424;2023-09-19T05:40:53;100930.56;;;12.81;100.00
71772;BME280;59606;52.138;5.424;2023-09-19T05:43:20;100925.25;;;12.82;100.00
71772;BME280;59606;52.138;5.424;2023-09-19T05:45:47;100932.91;;;12.85;100.00
71772;BME280;59606;52.138;5.424;2023-09-19T05:48:14;100930.16;;;12.87;100.00
71772;BME280;59606;52.138;5.424;2023-09-19T05:50:43;100943.16;;;12.88;100.00
71772;BME280;59606;52.138;5.424;2023-09-19T05:53:09;100944.66;;;12.92;100.00
71772;BME280;59606;52.138;5.424;2023-09-19T05:55:39;100940.16;;;12.94;100.00
71772;BME280;59606;52.138;5.424;2023-09-19T05:58:07;100952.94;;;12.99;100.00
71772;BME280;59606;52.138;5.424;2023-09-19T06:00:35;100953.69;;;13.01;100.00
71772;BME280;59606;52.138;5.424;2023-09-19T06:03:04;100953.41;;;13.06;100.00
71772;BME280;59606;52.138;5.424;2023-09-19T06:05:31;100953.28;;;13.07;100.00
71772;BME280;59606;52.138;5.424;2023-09-19T06:07:58;100954.88;;;13.10;100.00
71772;BME280;59606;52.138;5.424;2023-09-19T06:10:27;100962.63;;;13.11;100.00
71772;BME280;59606;52.138;5.424;2023-09-19T06:12:54;100969.44;;;13.14;100.00
71772;BME280;59606;52.138;5.424;2023-09-19T06:15:25;100976.25;;;13.16;100.00
71772;BME280;59606;52.138;5.424;2023-09-19T06:17:53;100967.56;;;13.16;100.00
71772;BME280;59606;52.138;5.424;2023-09-19T06:20:25;100968.41;;;13.16;100.00
71772;BME280;59606;52.138;5.424;2023-09-19T06:22:53;100970.00;;;13.19;100.00
71772;BME280;59606;52.138;5.424;2023-09-19T06:25:21;100980.28;;;13.22;100.00
71772;BME280;59606;52.138;5.424;2023-09-19T06:27:51;100976.81;;;13.21;100.00
71772;BME280;59606;52.138;5.424;2023-09-19T06:30:21;100976.66;;;13.25;100.00
71772;BME280;59606;52.138;5.424;2023-09-19T06:32:49;100978.13;;;13.29;100.00
71772;BME280;59606;52.138;5.424;2023-09-19T06:35:21;100971.00;;;13.31;100.00
71772;BME280;59606;52.138;5.424;2023-09-19T06:37:48;100963.78;;;13.34;100.00
71772;BME280;59606;52.138;5.424;2023-09-19T06:40:14;100956.69;;;13.36;100.00
71772;BME280;59606;52.138;5.424;2023-09-19T06:42:43;100963.41;;;13.40;100.00
71772;BME280;59606;52.138;5.424;2023-09-19T06:45:12;100965.94;;;13.42;100.00
71772;BME280;59606;52.138;5.424;2023-09-19T06:47:40;100955.28;;;13.45;100.00
71772;BME280;59606;52.138;5.424;2023-09-19T06:50:07;100962.06;;;13.48;100.00
71772;BME280;59606;52.138;5.424;2023-09-19T06:52:40;100967.84;;;13.53;100.00
71772;BME280;59606;52.138;5.424;2023-09-19T06:55:08;100958.03;;;13.56;100.00
71772;BME280;59606;52.138;5.424;2023-09-19T06:57:38;100964.63;;;13.62;100.00
71772;BME280;59606;52.138;5.424;2023-09-19T07:00:07;100970.50;;;13.65;100.00
71772;BME280;59606;52.138;5.424;2023-09-19T07:02:42;100968.53;;;13.69;100.00
71772;BME280;59606;52.138;5.424;2023-09-19T07:05:09;100963.81;;;13.74;100.00
71772;BME280;59606;52.138;5.424;2023-09-19T07:07:36;100967.06;;;13.78;100.00
71772;BME280;59606;52.138;5.424;2023-09-19T07:10:04;100966.78;;;13.82;100.00
71772;BME280;59606;52.138;5.424;2023-09-19T07:12:37;100964.59;;;13.89;100.00
71772;BME280;59606;52.138;5.424;2023-09-19T07:15:04;100954.63;;;13.94;100.00
71772;BME280;59606;52.138;5.424;2023-09-19T07:17:32;100963.03;;;13.99;100.00
71772;BME280;59606;52.138;5.424;2023-09-19T07:19:59;100967.97;;;14.04;100.00
71772;BME280;59606;52.138;5.424;2023-09-19T07:22:26;100977.19;;;14.09;100.00
71772;BME280;59606;52.138;5.424;2023-09-19T07:24:53;100977.69;;;14.14;100.00
71772;BME280;59606;52.138;5.424;2023-09-19T07:27:20;100982.66;;;14.19;100.00
71772;BME280;59606;52.138;5.424;2023-09-19T07:29:46;100981.38;;;14.25;100.00
71772;BME280;59606;52.138;5.424;2023-09-19T07:32:16;100991.56;;;14.29;100.00
71772;BME280;59606;52.138;5.424;2023-09-19T07:34:43;100986.00;;;14.34;100.00
71772;BME280;59606;52.138;5.424;2023-09-19T07:37:11;100996.19;;;14.38;100.00
71772;BME280;59606;52.138;5.424;2023-09-19T07:39:39;100982.75;;;14.43;100.00
71772;BME280;59606;52.138;5.424;2023-09-19T07:42:07;100984.88;;;14.51;100.00
71772;BME280;59606;52.138;5.424;2023-09-19T07:44:37;100989.69;;;14.57;100.00
71772;BME280;59606;52.138;5.424;2023-09-19T07:47:03;100988.44;;;14.63;100.00
71772;BME280;59606;52.138;5.424;2023-09-19T07:49:30;100982.75;;;14.69;100.00
71772;BME280;59606;52.138;5.424;2023-09-19T07:51:57;100993.66;;;14.75;100.00
71772;BME280;59606;52.138;5.424;2023-09-19T07:54:23;100985.34;;;14.81;100.00
71772;BME280;59606;52.138;5.424;2023-09-19T07:56:51;100990.31;;;14.86;100.00
71772;BME280;59606;52.138;5.424;2023-09-19T07:59:17;100995.09;;;14.92;100.00
71772;BME280;59606;52.138;5.424;2023-09-19T08:01:44;100988.78;;;14.95;100.00
71772;BME280;59606;52.138;5.424;2023-09-19T08:04:10;100989.41;;;14.98;100.00
71772;BME280;59606;52.138;5.424;2023-09-19T08:06:37;100996.16;;;15.02;100.00
71772;BME280;59606;52.138;5.424;2023-09-19T08:09:05;100997.38;;;15.09;100.00
71772;BME280;59606;52.138;5.424;2023-09-19T08:11:35;100989.78;;;15.18;100.00
71772;BME280;59606;52.138;5.424;2023-09-19T08:14:02;100994.47;;;15.25;100.00
71772;BME280;59606;52.138;5.424;2023-09-19T08:16:29;100995.09;;;15.29;100.00
71772;BME280;59606;52.138;5.424;2023-09-19T08:18:55;100990.50;;;15.32;100.00
71772;BME280;59606;52.138;5.424;2023-09-19T08:21:22;100988.56;;;15.35;100.00
71772;BME280;59606;52.138;5.424;2023-09-19T08:23:50;100990.13;;;15.37;100.00
71772;BME280;59606;52.138;5.424;2023-09-19T08:26:17;100995.78;;;15.44;100.00
71772;BME280;59606;52.138;5.424;2023-09-19T08:28:43;100995.34;;;15.50;100.00
71772;BME280;59606;52.138;5.424;2023-09-19T08:31:10;100983.75;;;15.52;100.00
71772;BME280;59606;52.138;5.424;2023-09-19T08:33:37;100983.31;;;15.59;100.00
71772;BME280;59606;52.138;5.424;2023-09-19T08:36:06;100975.22;;;15.62;100.00
71772;BME280;59606;52.138;5.424;2023-09-19T08:38:34;100982.88;;;15.65;100.00
71772;BME280;59606;52.138;5.424;2023-09-19T08:41:06;100977.19;;;15.71;100.00
71772;BME280;59606;52.138;5.424;2023-09-19T08:43:35;100982.00;;;15.77;100.00
71772;BME280;59606;52.138;5.424;2023-09-19T08:48:32;100982.38;;;15.84;99.49
71772;BME280;59606;52.138;5.424;2023-09-19T08:51:07;100979.16;;;15.91;100.00
71772;BME280;59606;52.138;5.424;2023-09-19T08:53:58;100971.66;;;15.98;100.00
71772;BME280;59606;52.138;5.424;2023-09-19T08:56:32;100966.91;;;16.03;99.60
71772;BME280;59606;52.138;5.424;2023-09-19T08:59:02;100973.00;;;16.15;98.72
71772;BME280;59606;52.138;5.424;2023-09-19T09:01:31;100973.38;;;16.21;98.55
71772;BME280;59606;52.138;5.424;2023-09-19T09:03:59;100972.19;;;16.25;95.62
71772;BME280;59606;52.138;5.424;2023-09-19T09:06:27;100971.50;;;16.35;95.96
71772;BME280;59606;52.138;5.424;2023-09-19T09:08:55;100977.72;;;16.45;96.00
71772;BME280;59606;52.138;5.424;2023-09-19T09:11:22;100975.06;;;16.56;96.71
71772;BME280;59606;52.138;5.424;2023-09-19T09:13:51;100982.38;;;16.64;95.21
71772;BME280;59606;52.138;5.424;2023-09-19T09:16:18;100973.03;;;16.60;94.63
71772;BME280;59606;52.138;5.424;2023-09-19T09:18:46;100971.28;;;16.60;95.03
71772;BME280;59606;52.138;5.424;2023-09-19T09:21:18;100965.63;;;16.65;94.41
71772;BME280;59606;52.138;5.424;2023-09-19T09:23:49;100964.44;;;16.69;93.21
71772;BME280;59606;52.138;5.424;2023-09-19T09:29:05;100967.13;;;16.80;93.10
71772;BME280;59606;52.138;5.424;2023-09-19T09:31:31;100959.56;;;16.87;93.88
71772;BME280;59606;52.138;5.424;2023-09-19T09:33:58;100960.84;;;16.92;93.18
71772;BME280;59606;52.138;5.424;2023-09-19T09:36:39;100950.91;;;16.96;92.25
71772;BME280;59606;52.138;5.424;2023-09-19T09:39:07;100960.97;;;17.02;91.28
71772;BME280;59606;52.138;5.424;2023-09-19T09:41:51;100964.06;;;17.07;90.13
71772;BME280;59606;52.138;5.424;2023-09-19T09:44:18;100962.38;;;17.17;91.05
71772;BME280;59606;52.138;5.424;2023-09-19T09:46:47;100953.72;;;17.27;89.40
71772;BME280;59606;52.138;5.424;2023-09-19T09:49:23;100948.53;;;17.36;90.74
71772;BME280;59606;52.138;5.424;2023-09-19T09:52:04;100949.34;;;17.48;90.00
71772;BME280;59606;52.138;5.424;2023-09-19T09:55:02;100943.19;;;17.59;89.10
71772;BME280;59606;52.138;5.424;2023-09-19T09:57:32;100954.69;;;17.58;88.01
71772;BME280;59606;52.138;5.424;2023-09-19T10:00:00;100957.56;;;17.55;86.75
71772;BME280;59606;52.138;5.424;2023-09-19T10:02:39;100947.38;;;17.61;86.95
71772;BME280;59606;52.138;5.424;2023-09-19T10:05:18;100949.63;;;17.66;86.39
71772;BME280;59606;52.138;5.424;2023-09-19T10:07:55;100959.78;;;17.71;87.71
71772;BME280;59606;52.138;5.424;2023-09-19T10:10:37;100967.41;;;17.74;85.46
71772;BME280;59606;52.138;5.424;2023-09-19T10:13:11;100960.47;;;17.73;84.42
71772;BME280;59606;52.138;5.424;2023-09-19T10:15:48;100949.25;;;17.71;84.00
71772;BME280;59606;52.138;5.424;2023-09-19T10:18:26;100954.31;;;17.62;84.82
71772;BME280;59606;52.138;5.424;2023-09-19T10:20:56;100955.28;;;17.61;84.21
71772;BME280;59606;52.138;5.424;2023-09-19T10:23:24;100932.31;;;17.52;85.03
71772;BME280;59606;52.138;5.424;2023-09-19T10:25:53;100956.41;;;17.48;83.49
71772;BME280;59606;52.138;5.424;2023-09-19T10:28:21;100951.59;;;17.53;84.21
71772;BME280;59606;52.138;5.424;2023-09-19T10:30:52;100939.91;;;17.66;87.11
71772;BME280;59606;52.138;5.424;2023-09-19T10:33:21;100943.78;;;17.83;83.94
71772;BME280;59606;52.138;5.424;2023-09-19T10:35:50;100937.69;;;17.83;83.68
71772;BME280;59606;52.138;5.424;2023-09-19T10:38:24;100934.03;;;17.95;84.86
71772;BME280;59606;52.138;5.424;2023-09-19T10:40:53;100930.94;;;18.11;83.32
71772;BME280;59606;52.138;5.424;2023-09-19T10:43:21;100911.88;;;18.28;83.54
71772;BME280;59606;52.138;5.424;2023-09-19T10:45:53;100908.56;;;18.36;82.18
71772;BME280;59606;52.138;5.424;2023-09-19T10:48:23;100912.69;;;18.29;82.69
71772;BME280;59606;52.138;5.424;2023-09-19T10:51:06;100906.16;;;18.23;82.20
71772;BME280;59606;52.138;5.424;2023-09-19T10:53:49;100905.19;;;18.24;84.35
71772;BME280;59606;52.138;5.424;2023-09-19T10:56:29;100905.31;;;18.23;82.85
71772;BME280;59606;52.138;5.424;2023-09-19T10:59:06;100889.78;;;18.29;82.00
71772;BME280;59606;52.138;5.424;2023-09-19T11:04:30;100890.03;;;18.57;80.07
71772;BME280;59606;52.138;5.424;2023-09-19T11:07:06;100883.78;;;18.58;80.23
71772;BME280;59606;52.138;5.424;2023-09-19T11:26:45;100893.47;;;18.78;81.60
71772;BME280;59606;52.138;5.424;2023-09-19T11:29:27;100874.56;;;18.83;80.01
71772;BME280;59606;52.138;5.424;2023-09-19T11:31:56;100885.38;;;18.80;79.05
71772;BME280;59606;52.138;5.424;2023-09-19T11:40:08;100866.44;;;18.65;79.22
71772;BME280;59606;52.138;5.424;2023-09-19T11:42:47;100872.00;;;18.62;79.01
71772;BME280;59606;52.138;5.424;2023-09-19T11:48:07;100874.59;;;18.52;77.19
71772;BME280;59606;52.138;5.424;2023-09-19T11:50:35;100870.88;;;18.55;78.65
71772;BME280;59606;52.138;5.424;2023-09-19T11:53:05;100861.44;;;18.62;79.12
71772;BME280;59606;52.138;5.424;2023-09-19T11:55:32;100850.09;;;18.81;78.00
71772;BME280;59606;52.138;5.424;2023-09-19T11:58:01;100856.91;;;18.83;77.48
71772;BME280;59606;52.138;5.424;2023-09-19T12:00:27;100849.81;;;18.84;76.48
71772;BME280;59606;52.138;5.424;2023-09-19T12:02:58;100869.13;;;18.84;76.43
71772;BME280;59606;52.138;5.424;2023-09-19T12:05:29;100859.00;;;18.80;75.41
71772;BME280;59606;52.138;5.424;2023-09-19T12:07:57;100875.59;;;18.71;76.75
71772;BME280;59606;52.138;5.424;2023-09-19T12:10:24;100887.16;;;18.70;76.86
71772;BME280;59606;52.138;5.424;2023-09-19T12:12:52;100880.22;;;18.69;76.42
71772;BME280;59606;52.138;5.424;2023-09-19T12:15:23;100878.25;;;18.71;76.24
71772;BME280;59606;52.138;5.424;2023-09-19T12:17:55;100880.53;;;18.75;77.08
71772;BME280;59606;52.138;5.424;2023-09-19T12:20:21;100861.34;;;18.73;75.86
71772;BME280;59606;52.138;5.424;2023-09-19T12:22:48;100873.72;;;18.73;76.90
71772;BME280;59606;52.138;5.424;2023-09-19T12:25:16;100863.28;;;18.71;76.08
71772;BME280;59606;52.138;5.424;2023-09-19T12:27:46;100867.13;;;18.67;76.95
71772;BME280;59606;52.138;5.424;2023-09-19T12:30:16;100867.53;;;18.63;77.35
71772;BME280;59606;52.138;5.424;2023-09-19T12:32:53;100872.13;;;18.60;77.30
71772;BME280;59606;52.138;5.424;2023-09-19T12:35:29;100870.19;;;18.63;77.09
71772;BME280;59606;52.138;5.424;2023-09-19T12:37:57;100866.44;;;18.65;77.40
71772;BME280;59606;52.138;5.424;2023-09-19T12:40:24;100861.72;;;18.69;77.58
71772;BME280;59606;52.138;5.424;2023-09-19T12:42:56;100861.56;;;18.70;77.76
71772;BME280;59606;52.138;5.424;2023-09-19T12:45:25;100866.03;;;18.70;78.02
71772;BME280;59606;52.138;5.424;2023-09-19T12:48:23;100863.25;;;18.61;78.40
71772;BME280;59606;52.138;5.424;2023-09-19T12:51:08;100872.94;;;18.51;77.94
71772;BME280;59606;52.138;5.424;2023-09-19T12:53:41;100865.28;;;18.48;79.06
71772;BME280;59606;52.138;5.424;2023-09-19T12:56:15;100874.88;;;18.49;79.80
71772;BME280;59606;52.138;5.424;2023-09-19T12:58:55;100862.50;;;18.50;80.31
71772;BME280;59606;52.138;5.424;2023-09-19T13:01:23;100872.78;;;18.53;79.81
71772;BME280;59606;52.138;5.424;2023-09-19T13:04:19;100871.72;;;18.65;80.48
71772;BME280;59606;52.138;5.424;2023-09-19T13:06:50;100869.41;;;18.72;79.84
71772;BME280;59606;52.138;5.424;2023-09-19T13:09:22;100869.16;;;18.75;80.06
71772;BME280;59606;52.138;5.424;2023-09-19T13:11:54;100868.00;;;18.77;78.76
71772;BME280;59606;52.138;5.424;2023-09-19T13:14:24;100863.44;;;18.79;79.41
71772;BME280;59606;52.138;5.424;2023-09-19T13:19:37;100853.31;;;18.75;79.14
71772;BME280;59606;52.138;5.424;2023-09-19T13:25:16;100886.44;;;18.58;80.76
71772;BME280;59606;52.138;5.424;2023-09-19T13:27:49;100893.50;;;18.48;83.14
71772;BME280;59606;52.138;5.424;2023-09-19T13:30:21;100887.91;;;18.41;83.63
71772;BME280;59606;52.138;5.424;2023-09-19T13:32:48;100882.91;;;18.38;83.63
71772;BME280;59606;52.138;5.424;2023-09-19T13:35:15;100870.84;;;18.45;81.66
71772;BME280;59606;52.138;5.424;2023-09-19T13:37:43;100873.91;;;18.60;83.06
71772;BME280;59606;52.138;5.424;2023-09-19T13:40:12;100866.84;;;18.70;81.27
71772;BME280;59606;52.138;5.424;2023-09-19T13:42:39;100855.53;;;18.79;82.05
71772;BME280;59606;52.138;5.424;2023-09-19T13:45:07;100856.53;;;18.88;80.47
71772;BME280;59606;52.138;5.424;2023-09-19T13:47:34;100862.34;;;18.92;79.56